KADW

Joint Base Andrews Airport

Camp Springs, Maryland, USA
METAR KADW 212256Z AUTO 30004KT 10SM SCT160 15/M05 A3033 RMK AO2 SLP279 T01541051 $
Observed Flight Rules
Apr-21 @ 22:56 UTC (11 minutes ago) Visual Flight Rules
Wind Visibility Clouds
300° at 4 knots 10 miles
  • Scattered at 16,000' AGL
Temperatures Readings
Current 15°C / 59°F
Dewpoint -5°C / 23°F
Humidity 25%
Altimeter 30.33" Hg
Pressure 1027.9 hPa
Elevation 86
METAR KADW 212256Z AUTO 30004KT 10SM SCT160 15/M05 A3033 RMK AO2 SLP279 T01541051 $
Observed Flight Rules
Apr-21 @ 22:56 UTC
(11 minutes ago)
VFR
Wind Visibility
300° at 4 knots 10 miles
Clouds
  • Scattered at 16,000' AGL
Temperature Dewpoint
15°C / 59°F -5°C / 23°F
Humidity Altimeter Pressure
25% 30.33" Hg 1027.9 hPa